createdAt,value
2019-01-20T00:05:02.972Z,8.87
2019-01-20T00:10:07.053Z,7.57
2019-01-20T00:15:11.006Z,8.73
2019-01-20T00:20:14.790Z,8.70
2019-01-20T00:25:18.574Z,7.40
2019-01-20T00:30:22.325Z,8.43
2019-01-20T00:35:26.066Z,8.43
2019-01-20T00:40:29.756Z,8.77
2019-01-20T00:45:33.447Z,7.63
2019-01-20T00:50:37.111Z,9.57
2019-01-20T00:55:40.809Z,7.87
2019-01-20T01:00:44.490Z,7.93
2019-01-20T01:05:48.178Z,9.03
2019-01-20T01:10:51.969Z,8.83
2019-01-20T01:15:55.685Z,9.57
2019-01-20T01:20:59.360Z,7.63
2019-01-20T01:26:03.103Z,8.63
2019-01-20T01:31:06.797Z,7.07
2019-01-20T01:36:10.904Z,8.80
2019-01-20T01:41:14.578Z,7.10
2019-01-20T01:46:18.504Z,7.37
2019-01-20T01:51:22.205Z,9.13
2019-01-20T01:56:25.930Z,6.03
2019-01-20T02:01:29.692Z,6.23
2019-01-20T02:06:33.386Z,8.53
2019-01-20T02:11:37.081Z,5.60
2019-01-20T02:16:40.923Z,7.17
2019-01-20T02:21:44.598Z,5.50
2019-01-20T02:26:48.294Z,6.87
2019-01-20T02:31:52.098Z,6.70
2019-01-20T02:36:55.900Z,7.33
2019-01-20T02:41:59.560Z,6.37
2019-01-20T02:47:04.110Z,7.33
2019-01-20T02:52:07.807Z,6.23
2019-01-20T02:57:11.490Z,5.93
2019-01-20T03:02:15.208Z,6.07
2019-01-20T03:07:19.043Z,7.57
2019-01-20T03:12:22.741Z,5.50
2019-01-20T03:17:26.438Z,7.73
2019-01-20T03:22:30.292Z,10.07
2019-01-20T03:27:34.004Z,7.63
2019-01-20T03:32:37.726Z,5.67
2019-01-20T03:37:41.429Z,5.00
2019-01-20T03:42:45.196Z,6.37
2019-01-20T03:47:49.511Z,9.67
2019-01-20T03:52:53.213Z,7.40
2019-01-20T03:57:56.887Z,6.87
2019-01-20T04:03:02.432Z,7.53
2019-01-20T04:08:06.185Z,6.93
2019-01-20T04:13:09.892Z,7.13
2019-01-20T04:18:13.648Z,7.27
2019-01-20T04:23:17.325Z,6.93
2019-01-20T04:28:21.093Z,5.77
2019-01-20T04:33:24.863Z,6.77
2019-01-20T04:38:28.655Z,5.72
2019-01-20T04:43:32.328Z,5.00
2019-01-20T04:48:36.217Z,5.23
2019-01-20T04:53:40.580Z,6.58
2019-01-20T04:58:44.276Z,6.23
2019-01-20T05:03:47.974Z,5.90
2019-01-20T05:08:51.784Z,5.67
2019-01-20T05:13:55.537Z,6.10
2019-01-20T05:18:59.246Z,9.57
2019-01-20T05:24:03.732Z,6.15
2019-01-20T05:29:07.475Z,7.10
2019-01-20T05:34:11.173Z,7.27
2019-01-20T05:39:14.896Z,6.83
2019-01-20T05:44:18.944Z,5.57
2019-01-20T05:49:22.663Z,6.67
2019-01-20T05:54:26.478Z,5.47
2019-01-20T05:59:30.166Z,5.27
2019-01-20T06:04:33.860Z,5.60
2019-01-20T06:09:37.629Z,7.75
2019-01-20T06:14:41.390Z,6.97
2019-01-20T06:19:45.125Z,6.87
2019-01-20T06:24:48.809Z,6.20
2019-01-20T06:29:52.520Z,7.53
2019-01-20T06:34:56.220Z,6.20
2019-01-20T06:40:00.004Z,7.13
2019-01-20T06:45:04.415Z,6.30
2019-01-20T06:50:09.431Z,6.97
2019-01-20T06:55:13.136Z,7.27
2019-01-20T07:00:17.910Z,8.07
2019-01-20T07:05:21.627Z,8.07
2019-01-20T07:10:25.348Z,7.87
2019-01-20T07:15:29.140Z,7.77
2019-01-20T07:20:33.603Z,8.90
2019-01-20T07:25:37.298Z,7.60
2019-01-20T07:30:41.047Z,10.37
2019-01-20T07:35:44.718Z,10.87
2019-01-20T07:40:48.414Z,11.30
2019-01-20T07:45:52.105Z,9.83
2019-01-20T07:50:55.936Z,14.23
2019-01-20T07:55:59.631Z,10.40
2019-01-20T08:01:04.198Z,12.93
2019-01-20T08:06:20.135Z,11.70
2019-01-20T08:11:23.868Z,11.57
2019-01-20T08:16:27.797Z,11.90
2019-01-20T08:21:31.598Z,9.33
2019-01-20T08:26:37.531Z,9.87
2019-01-20T08:31:41.265Z,11.37
2019-01-20T08:36:45.094Z,12.40
2019-01-20T08:41:48.778Z,12.13
2019-01-20T08:46:57.023Z,11.30
2019-01-20T08:52:00.704Z,9.87
2019-01-20T08:57:04.421Z,11.03
2019-01-20T09:02:08.303Z,9.70
2019-01-20T09:07:12.089Z,11.60
2019-01-20T09:12:15.796Z,12.53
2019-01-20T09:17:19.566Z,12.60
2019-01-20T09:22:23.351Z,12.30
2019-01-20T09:27:27.437Z,10.97
2019-01-20T09:32:31.186Z,10.97
2019-01-20T09:37:35.072Z,10.23
2019-01-20T09:42:38.824Z,12.97
2019-01-20T09:47:42.612Z,11.37
2019-01-20T09:52:46.334Z,10.53
2019-01-20T09:57:50.077Z,10.80
2019-01-20T10:02:53.854Z,12.37
2019-01-20T10:07:57.559Z,10.93
2019-01-20T10:13:01.811Z,11.30
2019-01-20T10:18:08.649Z,11.10
2019-01-20T10:23:14.322Z,13.07
2019-01-20T10:28:19.363Z,12.43
2019-01-20T10:33:23.133Z,11.07
2019-01-20T10:38:26.856Z,11.37
2019-01-20T10:43:30.654Z,12.65
2019-01-20T10:48:34.480Z,12.60
2019-01-20T10:53:38.168Z,13.00
2019-01-20T10:58:41.954Z,12.50
2019-01-20T11:03:46.960Z,11.57
2019-01-20T11:08:50.785Z,12.77
2019-01-20T11:13:54.495Z,13.27
2019-01-20T11:18:58.277Z,11.40
2019-01-20T11:24:02.256Z,15.03
2019-01-20T11:29:06.028Z,11.37
2019-01-20T11:34:09.881Z,12.37
2019-01-20T11:39:13.907Z,12.43
2019-01-20T11:44:17.680Z,14.30
2019-01-20T11:49:21.452Z,14.60
2019-01-20T11:54:25.297Z,11.83
2019-01-20T11:59:29.064Z,13.80
2019-01-20T12:04:32.892Z,14.10
2019-01-20T12:09:36.575Z,12.40
2019-01-20T12:14:40.349Z,14.33
2019-01-20T12:19:44.142Z,12.07
2019-01-20T12:24:47.863Z,14.83
2019-01-20T12:29:52.099Z,18.03
2019-01-20T12:34:56.017Z,13.07
2019-01-20T12:39:59.862Z,11.97
2019-01-20T12:45:04.905Z,14.93
2019-01-20T12:50:09.739Z,14.77
2019-01-20T12:55:13.718Z,15.57
2019-01-20T13:00:18.056Z,14.07
2019-01-20T13:05:21.880Z,13.40
2019-01-20T13:10:25.601Z,14.63
2019-01-20T13:15:29.447Z,16.00
2019-01-20T13:20:33.344Z,13.53
2019-01-20T13:25:37.565Z,13.23
2019-01-20T13:30:41.357Z,16.13
2019-01-20T13:35:45.176Z,14.27
2019-01-20T13:40:50.725Z,14.07
2019-01-20T13:45:54.459Z,13.63
2019-01-20T13:50:58.217Z,15.70
2019-01-20T13:56:01.973Z,14.17
2019-01-20T14:01:09.617Z,16.03
2019-01-20T14:06:13.525Z,15.27
2019-01-20T14:11:17.281Z,16.07
2019-01-20T14:16:23.369Z,15.28
2019-01-20T14:21:27.190Z,13.18
2019-01-20T14:26:31.040Z,16.50
2019-01-20T14:31:34.879Z,14.87
2019-01-20T14:36:38.841Z,13.87
2019-01-20T14:41:42.641Z,15.33
2019-01-20T14:46:46.394Z,13.77
2019-01-20T14:51:50.153Z,16.13
2019-01-20T14:56:53.881Z,14.70
2019-01-20T15:01:57.745Z,15.00
2019-01-20T15:07:01.569Z,18.43
2019-01-20T15:12:05.356Z,17.67
2019-01-20T15:17:09.153Z,18.20
2019-01-20T15:22:12.949Z,18.27
2019-01-20T15:27:16.663Z,18.00
2019-01-20T15:32:20.435Z,18.37
2019-01-20T15:37:24.189Z,22.57
2019-01-20T15:42:27.961Z,18.63
2019-01-20T15:47:31.661Z,18.97
2019-01-20T15:52:35.369Z,18.80
2019-01-20T15:57:39.167Z,18.27
2019-01-20T16:02:42.957Z,23.43
2019-01-20T16:07:46.670Z,19.40
2019-01-20T16:12:51.275Z,21.63
2019-01-20T16:17:55.588Z,18.63
2019-01-20T16:23:03.084Z,18.33
2019-01-20T16:28:07.825Z,20.00
2019-01-20T16:33:11.681Z,21.10
2019-01-20T16:38:15.486Z,22.50
2019-01-20T16:43:19.199Z,21.10
2019-01-20T16:48:22.942Z,26.83
2019-01-20T16:53:26.888Z,23.23
2019-01-20T16:58:32.944Z,24.63
2019-01-20T17:03:36.739Z,22.10
2019-01-20T17:08:40.444Z,19.30
2019-01-20T17:13:47.474Z,24.90
2019-01-20T17:18:51.195Z,23.43
2019-01-20T17:23:54.952Z,22.23
2019-01-20T17:28:58.701Z,26.90
2019-01-20T17:34:02.531Z,22.93
2019-01-20T17:39:11.886Z,20.50
2019-01-20T17:44:13.404Z,18.73
2019-01-20T17:49:17.183Z,19.90
2019-01-20T17:54:20.879Z,18.40
2019-01-20T17:59:24.673Z,19.37
2019-01-20T18:04:28.483Z,21.67
2019-01-20T18:09:32.193Z,23.80
2019-01-20T18:14:36.034Z,23.07
2019-01-20T18:19:39.749Z,24.03
2019-01-20T18:24:43.479Z,21.63
2019-01-20T18:29:47.401Z,21.60
2019-01-20T18:34:51.185Z,21.63
2019-01-20T18:39:54.932Z,18.30
2019-01-20T18:44:58.864Z,21.53
2019-01-20T18:50:02.557Z,25.90
2019-01-20T18:55:07.077Z,24.63
2019-01-20T19:00:12.548Z,23.93
2019-01-20T19:05:16.345Z,20.33
2019-01-20T19:10:20.039Z,19.13
2019-01-20T19:15:23.916Z,17.70
2019-01-20T19:20:27.726Z,15.83
2019-01-20T19:25:31.629Z,20.13
2019-01-20T19:30:35.819Z,17.43
2019-01-20T19:35:39.570Z,23.93
2019-01-20T19:40:43.286Z,24.97
2019-01-20T19:45:47.054Z,25.17
2019-01-20T19:50:50.799Z,22.90
2019-01-20T19:55:54.540Z,25.40
2019-01-20T20:00:58.300Z,24.17
2019-01-20T20:06:02.096Z,23.27
2019-01-20T20:11:05.823Z,23.40
2019-01-20T20:16:09.557Z,22.87
2019-01-20T20:21:13.297Z,20.97
2019-01-20T20:26:17.022Z,21.93
2019-01-20T20:31:20.776Z,21.53
2019-01-20T20:36:26.010Z,21.67
2019-01-20T20:41:29.968Z,22.07
2019-01-20T20:46:33.709Z,21.17
2019-01-20T20:51:37.433Z,21.83
2019-01-20T20:56:41.504Z,23.27
2019-01-20T21:01:45.234Z,23.10
2019-01-20T21:06:49.175Z,29.97
2019-01-20T21:11:52.932Z,22.07
2019-01-20T21:16:56.688Z,28.43
2019-01-20T21:22:00.453Z,23.70
2019-01-20T21:27:04.171Z,27.17
2019-01-20T21:32:07.919Z,22.87
2019-01-20T21:37:11.707Z,23.25
2019-01-20T21:42:15.399Z,21.30
2019-01-20T21:47:19.207Z,20.20
2019-01-20T21:52:22.983Z,25.03
2019-01-20T21:57:26.708Z,20.47
2019-01-20T22:02:30.498Z,22.13
2019-01-20T22:07:34.189Z,28.50
2019-01-20T22:12:37.913Z,27.77
2019-01-20T22:17:41.646Z,22.47
2019-01-20T22:22:45.471Z,24.87
2019-01-20T22:27:49.163Z,24.53
2019-01-20T22:32:53.206Z,23.70
2019-01-20T22:37:56.990Z,21.60
2019-01-20T22:43:00.775Z,24.30
2019-01-20T22:48:04.915Z,22.90
2019-01-20T22:53:08.999Z,23.73
2019-01-20T22:58:12.702Z,22.13
2019-01-20T23:03:16.778Z,23.63
2019-01-20T23:08:20.516Z,19.60
2019-01-20T23:13:24.270Z,21.93
2019-01-20T23:18:27.988Z,22.10
2019-01-20T23:23:31.713Z,22.43
2019-01-20T23:28:35.518Z,19.53
2019-01-20T23:33:39.287Z,19.73
2019-01-20T23:38:43.012Z,20.37
2019-01-20T23:43:46.719Z,19.40
2019-01-20T23:48:50.493Z,20.47
2019-01-20T23:53:54.205Z,18.03
2019-01-20T23:58:58.082Z,23.23
